Wood, Iowa
Current Conditions -  °F | °C
As of 8:35 PM on Friday 28 Nov 2014 (Local Time) from KPDC Reporting Station
Clear Clear  
Wind Chill: 24°   Ceiling: Unl
Heat Index: 29°   Visibility: 10mi
Dew Point: 23°   Wind: 5mph
Humidity: 79%   Direction: 100°E
Pressure: 29.84"   Gusts: NA
Location:  42.6679°N, 91.3801°W
Report Text: KPDC 290235Z AUTO 10004KT 10SM CLR M02/M05 A2984 RMK AO2 T10181050
Loading
Personal Weather Stations






























Interactive Weather Map New forecast layout! Learn more

10-Day Weather Forecast

Advertisements
Track Severe Weather on mobile